Terminal Aerodrome Forecast
Issued by NWS

Home | Current Version | Previous Version | Text Only | Print | Product List | Glossary On
Versions: 1 2 3 4 5 6 7 8 9 10 11 12 13 14
000
FTUS45 KABQ 250550 AAA
TAFAEG
TAF AMD
KAEG 250550Z 2506/2606 26015G25KT P6SM SCT070 BKN150
     FM251200 23014G22KT P6SM OVC100
     FM251500 25018G27KT P6SM VCSH OVC035
     FM251800 27015G25KT 6SM -SHRA OVC030
     FM252200 29020G30KT P6SM VCSH OVC035
      AMD NOT SKED=

USA.gov is the U.S. government's official web portal to all federal, state and local government web resources and services.